sensor_id;sensor_type;location;lat;lon;timestamp;pressure;altitude;pressure_sealevel;temperature;humidity
36062;BME280;22123;52.412;20.970;2023-04-06T00:00:16;101328.69;;;-0.46;100.00
36062;BME280;22123;52.412;20.970;2023-04-06T00:02:42;101320.28;;;-0.54;100.00
36062;BME280;22123;52.412;20.970;2023-04-06T00:05:08;101357.16;;;-0.33;100.00
36062;BME280;22123;52.412;20.970;2023-04-06T00:07:34;101349.22;;;-0.33;100.00
36062;BME280;22123;52.412;20.970;2023-04-06T00:10:00;101290.06;;;-0.66;100.00
36062;BME280;22123;52.412;20.970;2023-04-06T00:12:26;101332.56;;;-0.36;100.00
36062;BME280;22123;52.412;20.970;2023-04-06T00:14:52;101301.63;;;-0.51;100.00
36062;BME280;22123;52.412;20.970;2023-04-06T00:17:18;101349.50;;;-0.22;100.00
36062;BME280;22123;52.412;20.970;2023-04-06T00:19:44;101319.44;;;-0.37;100.00
36062;BME280;22123;52.412;20.970;2023-04-06T00:22:10;101344.06;;;-0.19;100.00
36062;BME280;22123;52.412;20.970;2023-04-06T00:24:35;101321.41;;;-0.25;100.00
36062;BME280;22123;52.412;20.970;2023-04-06T00:27:01;101280.44;;;-0.51;100.00
36062;BME280;22123;52.412;20.970;2023-04-06T00:29:27;101352.44;;;-0.11;100.00
36062;BME280;22123;52.412;20.970;2023-04-06T00:31:53;101325.69;;;-0.22;100.00
36062;BME280;22123;52.412;20.970;2023-04-06T00:34:19;101317.84;;;-0.24;100.00
36062;BME280;22123;52.412;20.970;2023-04-06T00:36:45;101342.47;;;-0.06;100.00
36062;BME280;22123;52.412;20.970;2023-04-06T00:39:11;101306.41;;;-0.24;100.00
36062;BME280;22123;52.412;20.970;2023-04-06T00:41:37;101311.28;;;-0.16;100.00
36062;BME280;22123;52.412;20.970;2023-04-06T00:44:02;101282.13;;;-0.32;100.00
36062;BME280;22123;52.412;20.970;2023-04-06T00:46:28;101305.41;;;-0.22;100.00
36062;BME280;22123;52.412;20.970;2023-04-06T00:48:54;101303.34;;;-0.16;100.00
36062;BME280;22123;52.412;20.970;2023-04-06T00:51:20;101304.25;;;-0.18;100.00
36062;BME280;22123;52.412;20.970;2023-04-06T00:53:46;101309.56;;;-0.18;100.00
36062;BME280;22123;52.412;20.970;2023-04-06T00:56:12;101289.91;;;-0.29;100.00
36062;BME280;22123;52.412;20.970;2023-04-06T00:58:38;101276.25;;;-0.38;100.00
36062;BME280;22123;52.412;20.970;2023-04-06T01:01:04;101268.97;;;-0.34;100.00
36062;BME280;22123;52.412;20.970;2023-04-06T01:03:30;101310.84;;;-0.09;100.00
36062;BME280;22123;52.412;20.970;2023-04-06T01:05:56;101327.28;;;-0.02;100.00
36062;BME280;22123;52.412;20.970;2023-04-06T01:08:22;101280.94;;;-0.27;100.00
36062;BME280;22123;52.412;20.970;2023-04-06T01:10:47;101274.09;;;-0.31;100.00
36062;BME280;22123;52.412;20.970;2023-04-06T01:13:13;101283.44;;;-0.24;100.00
36062;BME280;22123;52.412;20.970;2023-04-06T01:15:39;101310.53;;;-0.03;100.00
36062;BME280;22123;52.412;20.970;2023-04-06T01:18:07;101301.16;;;-0.08;100.00
36062;BME280;22123;52.412;20.970;2023-04-06T01:20:33;101294.97;;;-0.09;100.00
36062;BME280;22123;52.412;20.970;2023-04-06T01:22:59;101293.03;;;-0.05;100.00
36062;BME280;22123;52.412;20.970;2023-04-06T01:25:25;101267.56;;;-0.24;100.00
36062;BME280;22123;52.412;20.970;2023-04-06T01:27:51;101256.59;;;-0.33;100.00
36062;BME280;22123;52.412;20.970;2023-04-06T01:30:17;101278.41;;;-0.12;100.00
36062;BME280;22123;52.412;20.970;2023-04-06T01:32:43;101257.06;;;-0.25;100.00
36062;BME280;22123;52.412;20.970;2023-04-06T01:35:10;101246.81;;;-0.31;100.00
36062;BME280;22123;52.412;20.970;2023-04-06T01:37:36;101289.69;;;-0.09;100.00
36062;BME280;22123;52.412;20.970;2023-04-06T01:40:02;101281.81;;;-0.10;100.00
36062;BME280;22123;52.412;20.970;2023-04-06T01:42:28;101250.38;;;-0.32;100.00
36062;BME280;22123;52.412;20.970;2023-04-06T01:44:54;101263.13;;;-0.23;100.00
36062;BME280;22123;52.412;20.970;2023-04-06T01:47:20;101254.56;;;-0.28;100.00
36062;BME280;22123;52.412;20.970;2023-04-06T01:49:46;101258.06;;;-0.28;100.00
36062;BME280;22123;52.412;20.970;2023-04-06T01:52:12;101241.50;;;-0.31;100.00
36062;BME280;22123;52.412;20.970;2023-04-06T01:54:38;101286.19;;;-0.09;100.00
36062;BME280;22123;52.412;20.970;2023-04-06T01:57:04;101254.75;;;-0.31;100.00
36062;BME280;22123;52.412;20.970;2023-04-06T01:59:29;101244.56;;;-0.39;100.00
36062;BME280;22123;52.412;20.970;2023-04-06T02:01:55;101295.94;;;-0.10;100.00
36062;BME280;22123;52.412;20.970;2023-04-06T02:04:21;101217.06;;;-0.53;100.00
36062;BME280;22123;52.412;20.970;2023-04-06T02:06:47;101214.66;;;-0.57;100.00
36062;BME280;22123;52.412;20.970;2023-04-06T02:09:14;101234.38;;;-0.47;100.00
36062;BME280;22123;52.412;20.970;2023-04-06T02:11:39;101252.44;;;-0.38;100.00
36062;BME280;22123;52.412;20.970;2023-04-06T02:14:05;101275.41;;;-0.22;100.00
36062;BME280;22123;52.412;20.970;2023-04-06T02:16:31;101246.97;;;-0.34;100.00
36062;BME280;22123;52.412;20.970;2023-04-06T02:18:57;101250.84;;;-0.24;100.00
36062;BME280;22123;52.412;20.970;2023-04-06T02:21:23;101219.13;;;-0.42;100.00
36062;BME280;22123;52.412;20.970;2023-04-06T02:23:49;101225.19;;;-0.40;100.00
36062;BME280;22123;52.412;20.970;2023-04-06T02:26:15;101225.09;;;-0.38;100.00
36062;BME280;22123;52.412;20.970;2023-04-06T02:28:41;101274.75;;;-0.10;100.00
36062;BME280;22123;52.412;20.970;2023-04-06T02:31:08;101241.34;;;-0.28;100.00
36062;BME280;22123;52.412;20.970;2023-04-06T02:33:34;101241.34;;;-0.28;100.00
36062;BME280;22123;52.412;20.970;2023-04-06T02:36:00;101209.81;;;-0.49;100.00
36062;BME280;22123;52.412;20.970;2023-04-06T02:38:26;101266.19;;;-0.15;100.00
36062;BME280;22123;52.412;20.970;2023-04-06T02:40:51;101229.28;;;-0.34;100.00
36062;BME280;22123;52.412;20.970;2023-04-06T02:43:19;101240.72;;;-0.33;100.00
36062;BME280;22123;52.412;20.970;2023-04-06T02:45:45;101218.34;;;-0.44;100.00
36062;BME280;22123;52.412;20.970;2023-04-06T02:48:10;101253.47;;;-0.24;100.00
36062;BME280;22123;52.412;20.970;2023-04-06T02:50:36;101218.00;;;-0.54;100.00
36062;BME280;22123;52.412;20.970;2023-04-06T02:53:02;101270.53;;;-0.30;100.00
36062;BME280;22123;52.412;20.970;2023-04-06T02:55:28;101212.44;;;-0.65;100.00
36062;BME280;22123;52.412;20.970;2023-04-06T02:57:54;101248.63;;;-0.49;100.00
36062;BME280;22123;52.412;20.970;2023-04-06T03:00:20;101252.91;;;-0.47;100.00
36062;BME280;22123;52.412;20.970;2023-04-06T03:02:46;101232.97;;;-0.70;100.00
36062;BME280;22123;52.412;20.970;2023-04-06T03:05:12;101222.97;;;-0.81;100.00
36062;BME280;22123;52.412;20.970;2023-04-06T03:07:37;101194.28;;;-1.06;100.00
36062;BME280;22123;52.412;20.970;2023-04-06T03:10:04;101246.22;;;-0.88;100.00
36062;BME280;22123;52.412;20.970;2023-04-06T03:12:30;101267.19;;;-0.84;100.00
36062;BME280;22123;52.412;20.970;2023-04-06T03:14:56;101264.97;;;-0.92;100.00
36062;BME280;22123;52.412;20.970;2023-04-06T03:17:21;101263.56;;;-0.99;100.00
36062;BME280;22123;52.412;20.970;2023-04-06T03:19:47;101232.09;;;-1.21;100.00
36062;BME280;22123;52.412;20.970;2023-04-06T03:22:13;101249.44;;;-1.16;100.00
36062;BME280;22123;52.412;20.970;2023-04-06T03:24:39;101285.47;;;-0.97;100.00
36062;BME280;22123;52.412;20.970;2023-04-06T03:27:05;101264.97;;;-1.10;100.00
36062;BME280;22123;52.412;20.970;2023-04-06T03:29:31;101285.72;;;-1.02;100.00
36062;BME280;22123;52.412;20.970;2023-04-06T03:31:57;101243.19;;;-1.32;100.00
36062;BME280;22123;52.412;20.970;2023-04-06T03:34:23;101246.81;;;-1.35;100.00
36062;BME280;22123;52.412;20.970;2023-04-06T03:36:48;101290.75;;;-1.15;100.00
36062;BME280;22123;52.412;20.970;2023-04-06T03:39:14;101295.44;;;-1.20;100.00
36062;BME280;22123;52.412;20.970;2023-04-06T03:41:40;101285.84;;;-1.23;100.00
36062;BME280;22123;52.412;20.970;2023-04-06T03:44:06;101271.47;;;-1.34;100.00
36062;BME280;22123;52.412;20.970;2023-04-06T03:46:32;101242.31;;;-1.50;100.00
36062;BME280;22123;52.412;20.970;2023-04-06T03:48:58;101267.34;;;-1.40;100.00
36062;BME280;22123;52.412;20.970;2023-04-06T03:51:24;101222.84;;;-1.67;100.00
36062;BME280;22123;52.412;20.970;2023-04-06T03:53:49;101272.97;;;-1.29;100.00
36062;BME280;22123;52.412;20.970;2023-04-06T03:56:15;101260.34;;;-1.41;100.00
36062;BME280;22123;52.412;20.970;2023-04-06T03:58:41;101276.28;;;-1.25;100.00
36062;BME280;22123;52.412;20.970;2023-04-06T04:01:07;101260.13;;;-1.36;100.00
36062;BME280;22123;52.412;20.970;2023-04-06T04:03:33;101267.59;;;-1.27;100.00
36062;BME280;22123;52.412;20.970;2023-04-06T04:05:59;101248.63;;;-1.35;100.00
36062;BME280;22123;52.412;20.970;2023-04-06T04:08:25;101251.66;;;-1.26;100.00
36062;BME280;22123;52.412;20.970;2023-04-06T04:10:51;101292.56;;;-0.98;100.00
36062;BME280;22123;52.412;20.970;2023-04-06T04:13:16;101277.69;;;-1.00;100.00
36062;BME280;22123;52.412;20.970;2023-04-06T04:15:42;101266.97;;;-0.97;100.00
36062;BME280;22123;52.412;20.970;2023-04-06T04:18:08;101248.78;;;-1.03;100.00
36062;BME280;22123;52.412;20.970;2023-04-06T04:20:34;101250.81;;;-0.91;100.00
36062;BME280;22123;52.412;20.970;2023-04-06T04:23:00;101252.22;;;-0.84;100.00
36062;BME280;22123;52.412;20.970;2023-04-06T04:25:26;101248.38;;;-0.78;100.00
36062;BME280;22123;52.412;20.970;2023-04-06T04:27:52;101239.84;;;-0.83;100.00
36062;BME280;22123;52.412;20.970;2023-04-06T04:30:18;101260.97;;;-0.66;100.00
36062;BME280;22123;52.412;20.970;2023-04-06T04:32:43;101241.81;;;-0.71;100.00
36062;BME280;22123;52.412;20.970;2023-04-06T04:35:09;101234.94;;;-0.74;100.00
36062;BME280;22123;52.412;20.970;2023-04-06T04:37:35;101241.44;;;-0.63;100.00
36062;BME280;22123;52.412;20.970;2023-04-06T04:40:01;101225.75;;;-0.66;100.00
36062;BME280;22123;52.412;20.970;2023-04-06T04:42:27;101226.25;;;-0.60;100.00
36062;BME280;22123;52.412;20.970;2023-04-06T04:44:53;101235.50;;;-0.51;100.00
36062;BME280;22123;52.412;20.970;2023-04-06T04:47:19;101256.50;;;-0.32;100.00
36062;BME280;22123;52.412;20.970;2023-04-06T04:49:44;101215.88;;;-0.47;100.00
36062;BME280;22123;52.412;20.970;2023-04-06T04:52:10;101204.19;;;-0.43;100.00
36062;BME280;22123;52.412;20.970;2023-04-06T04:54:36;101233.84;;;-0.20;100.00
36062;BME280;22123;52.412;20.970;2023-04-06T04:57:02;101222.31;;;-0.19;100.00
36062;BME280;22123;52.412;20.970;2023-04-06T04:59:28;101213.88;;;-0.10;100.00
36062;BME280;22123;52.412;20.970;2023-04-06T05:01:54;101137.63;;;-0.51;100.00
36062;BME280;22123;52.412;20.970;2023-04-06T05:04:20;101218.06;;;0.10;100.00
36062;BME280;22123;52.412;20.970;2023-04-06T05:06:46;101166.56;;;-0.16;100.00
36062;BME280;22123;52.412;20.970;2023-04-06T05:09:11;101227.84;;;0.24;100.00
36062;BME280;22123;52.412;20.970;2023-04-06T05:11:37;101215.53;;;0.23;100.00
36062;BME280;22123;52.412;20.970;2023-04-06T05:14:03;101228.19;;;0.34;100.00
36062;BME280;22123;52.412;20.970;2023-04-06T05:16:29;101209.84;;;0.31;100.00
36062;BME280;22123;52.412;20.970;2023-04-06T05:18:55;101247.06;;;0.60;100.00
36062;BME280;22123;52.412;20.970;2023-04-06T05:21:21;101245.06;;;0.63;100.00
36062;BME280;22123;52.412;20.970;2023-04-06T05:23:47;101253.72;;;0.67;100.00
36062;BME280;22123;52.412;20.970;2023-04-06T05:26:13;101229.19;;;0.47;100.00
36062;BME280;22123;52.412;20.970;2023-04-06T05:28:38;101223.91;;;0.47;100.00
36062;BME280;22123;52.412;20.970;2023-04-06T05:31:04;101221.16;;;0.49;100.00
36062;BME280;22123;52.412;20.970;2023-04-06T05:33:30;101235.34;;;0.64;100.00
36062;BME280;22123;52.412;20.970;2023-04-06T05:35:56;101218.19;;;0.69;100.00
36062;BME280;22123;52.412;20.970;2023-04-06T05:38:22;101182.56;;;0.59;100.00
36062;BME280;22123;52.412;20.970;2023-04-06T05:40:48;101202.19;;;0.87;100.00
36062;BME280;22123;52.412;20.970;2023-04-06T05:43:14;101164.56;;;0.80;100.00
36062;BME280;22123;52.412;20.970;2023-04-06T05:45:40;101185.44;;;1.15;100.00
36062;BME280;22123;52.412;20.970;2023-04-06T05:48:05;101215.97;;;1.51;100.00
36062;BME280;22123;52.412;20.970;2023-04-06T05:50:31;101220.31;;;1.67;100.00
36062;BME280;22123;52.412;20.970;2023-04-06T05:52:57;101215.63;;;1.85;100.00
36062;BME280;22123;52.412;20.970;2023-04-06T05:55:23;101201.22;;;1.89;100.00
36062;BME280;22123;52.412;20.970;2023-04-06T05:57:49;101200.41;;;2.01;100.00
36062;BME280;22123;52.412;20.970;2023-04-06T06:00:15;101243.97;;;2.40;100.00
36062;BME280;22123;52.412;20.970;2023-04-06T06:02:41;101213.44;;;2.33;100.00
36062;BME280;22123;52.412;20.970;2023-04-06T06:05:07;101226.66;;;2.48;100.00
36062;BME280;22123;52.412;20.970;2023-04-06T06:07:33;101200.75;;;2.24;100.00
36062;BME280;22123;52.412;20.970;2023-04-06T06:09:59;101228.03;;;2.40;100.00
36062;BME280;22123;52.412;20.970;2023-04-06T06:12:25;101214.75;;;2.40;100.00
36062;BME280;22123;52.412;20.970;2023-04-06T06:14:51;101191.00;;;2.37;100.00
36062;BME280;22123;52.412;20.970;2023-04-06T06:17:17;101217.97;;;2.58;100.00
36062;BME280;22123;52.412;20.970;2023-04-06T06:19:43;101216.75;;;2.77;100.00
36062;BME280;22123;52.412;20.970;2023-04-06T06:22:09;101200.47;;;2.82;100.00
36062;BME280;22123;52.412;20.970;2023-04-06T06:24:34;101192.69;;;2.66;100.00
36062;BME280;22123;52.412;20.970;2023-04-06T06:27:00;101185.97;;;2.60;100.00
36062;BME280;22123;52.412;20.970;2023-04-06T06:29:26;101202.06;;;2.71;100.00
36062;BME280;22123;52.412;20.970;2023-04-06T06:31:52;101195.09;;;2.56;100.00
36062;BME280;22123;52.412;20.970;2023-04-06T06:34:18;101219.53;;;2.75;100.00
36062;BME280;22123;52.412;20.970;2023-04-06T06:36:44;101219.31;;;2.78;100.00
36062;BME280;22123;52.412;20.970;2023-04-06T06:39:10;101192.81;;;2.77;100.00
36062;BME280;22123;52.412;20.970;2023-04-06T06:41:36;101201.91;;;3.00;100.00
36062;BME280;22123;52.412;20.970;2023-04-06T06:44:01;101189.78;;;3.09;100.00
36062;BME280;22123;52.412;20.970;2023-04-06T06:46:27;101199.88;;;3.29;100.00
36062;BME280;22123;52.412;20.970;2023-04-06T06:48:53;101220.84;;;3.47;100.00
36062;BME280;22123;52.412;20.970;2023-04-06T06:51:19;101185.28;;;3.09;100.00
36062;BME280;22123;52.412;20.970;2023-04-06T06:53:45;101154.75;;;2.89;100.00
36062;BME280;22123;52.412;20.970;2023-04-06T06:56:11;101189.78;;;3.22;100.00
36062;BME280;22123;52.412;20.970;2023-04-06T06:58:37;101184.22;;;3.25;100.00
36062;BME280;22123;52.412;20.970;2023-04-06T07:01:03;101188.78;;;3.23;100.00
36062;BME280;22123;52.412;20.970;2023-04-06T07:03:29;101164.84;;;3.36;100.00
36062;BME280;22123;52.412;20.970;2023-04-06T07:05:55;101165.59;;;3.38;100.00
36062;BME280;22123;52.412;20.970;2023-04-06T07:08:22;101187.00;;;3.49;100.00
36062;BME280;22123;52.412;20.970;2023-04-06T07:10:49;101163.13;;;3.47;100.00
36062;BME280;22123;52.412;20.970;2023-04-06T07:13:15;101210.00;;;4.00;100.00
36062;BME280;22123;52.412;20.970;2023-04-06T07:15:41;101176.31;;;3.99;100.00
36062;BME280;22123;52.412;20.970;2023-04-06T07:18:07;101185.75;;;4.16;100.00
36062;BME280;22123;52.412;20.970;2023-04-06T07:20:33;101185.34;;;4.33;100.00
36062;BME280;22123;52.412;20.970;2023-04-06T07:22:59;101170.81;;;4.38;100.00
36062;BME280;22123;52.412;20.970;2023-04-06T07:25:25;101182.44;;;4.61;100.00
36062;BME280;22123;52.412;20.970;2023-04-06T07:27:50;101175.59;;;4.92;100.00
36062;BME280;22123;52.412;20.970;2023-04-06T07:30:16;101173.50;;;4.84;100.00
36062;BME280;22123;52.412;20.970;2023-04-06T07:32:42;101155.69;;;4.85;100.00
36062;BME280;22123;52.412;20.970;2023-04-06T07:35:08;101171.69;;;4.85;100.00
36062;BME280;22123;52.412;20.970;2023-04-06T07:37:34;101179.06;;;4.70;100.00
36062;BME280;22123;52.412;20.970;2023-04-06T07:40:00;101180.59;;;4.61;100.00
36062;BME280;22123;52.412;20.970;2023-04-06T07:42:26;101181.97;;;4.43;100.00
36062;BME280;22123;52.412;20.970;2023-04-06T07:44:52;101173.78;;;4.22;100.00
36062;BME280;22123;52.412;20.970;2023-04-06T07:47:17;101186.53;;;4.29;100.00
36062;BME280;22123;52.412;20.970;2023-04-06T07:49:43;101203.41;;;4.41;100.00
36062;BME280;22123;52.412;20.970;2023-04-06T07:52:10;101170.94;;;4.36;100.00
36062;BME280;22123;52.412;20.970;2023-04-06T07:54:35;101161.13;;;4.37;100.00
36062;BME280;22123;52.412;20.970;2023-04-06T07:57:01;101166.38;;;4.49;100.00
36062;BME280;22123;52.412;20.970;2023-04-06T07:59:27;101186.53;;;4.53;100.00
36062;BME280;22123;52.412;20.970;2023-04-06T08:01:53;101145.53;;;4.19;100.00
36062;BME280;22123;52.412;20.970;2023-04-06T08:04:20;101174.69;;;4.33;100.00
36062;BME280;22123;52.412;20.970;2023-04-06T08:06:46;101163.91;;;4.11;100.00
36062;BME280;22123;52.412;20.970;2023-04-06T08:09:11;101165.09;;;4.07;100.00
36062;BME280;22123;52.412;20.970;2023-04-06T08:11:37;101199.56;;;4.21;100.00
36062;BME280;22123;52.412;20.970;2023-04-06T08:14:03;101170.28;;;4.08;100.00
36062;BME280;22123;52.412;20.970;2023-04-06T08:16:29;101162.19;;;4.10;100.00
36062;BME280;22123;52.412;20.970;2023-04-06T08:18:55;101168.03;;;4.39;100.00
36062;BME280;22123;52.412;20.970;2023-04-06T08:21:21;101180.19;;;4.43;100.00
36062;BME280;22123;52.412;20.970;2023-04-06T08:23:47;101160.66;;;4.43;100.00
36062;BME280;22123;52.412;20.970;2023-04-06T08:26:13;101163.19;;;4.44;100.00
36062;BME280;22123;52.412;20.970;2023-04-06T08:28:39;101167.16;;;4.63;100.00
36062;BME280;22123;52.412;20.970;2023-04-06T08:31:05;101191.44;;;4.71;100.00
36062;BME280;22123;52.412;20.970;2023-04-06T08:33:32;101169.94;;;4.61;100.00
36062;BME280;22123;52.412;20.970;2023-04-06T08:35:58;101178.34;;;4.79;100.00
36062;BME280;22123;52.412;20.970;2023-04-06T08:38:24;101155.91;;;4.82;100.00
36062;BME280;22123;52.412;20.970;2023-04-06T08:40:50;101160.66;;;4.78;100.00
36062;BME280;22123;52.412;20.970;2023-04-06T08:43:17;101176.91;;;4.75;100.00
36062;BME280;22123;52.412;20.970;2023-04-06T08:45:44;101154.34;;;4.44;100.00
36062;BME280;22123;52.412;20.970;2023-04-06T08:48:11;101190.25;;;4.51;100.00
36062;BME280;22123;52.412;20.970;2023-04-06T08:50:38;101143.72;;;4.20;100.00
36062;BME280;22123;52.412;20.970;2023-04-06T08:53:05;101191.69;;;4.44;100.00
36062;BME280;22123;52.412;20.970;2023-04-06T08:55:32;101175.56;;;4.21;100.00
36062;BME280;22123;52.412;20.970;2023-04-06T08:57:59;101127.50;;;3.74;100.00
36062;BME280;22123;52.412;20.970;2023-04-06T09:00:25;101127.91;;;3.81;100.00
36062;BME280;22123;52.412;20.970;2023-04-06T09:02:53;101120.69;;;3.70;100.00
36062;BME280;22123;52.412;20.970;2023-04-06T09:05:20;101151.53;;;3.86;100.00
36062;BME280;22123;52.412;20.970;2023-04-06T09:07:46;101173.72;;;4.10;100.00
36062;BME280;22123;52.412;20.970;2023-04-06T09:10:12;101144.22;;;4.00;100.00
36062;BME280;22123;52.412;20.970;2023-04-06T09:12:38;101121.88;;;3.90;100.00
36062;BME280;22123;52.412;20.970;2023-04-06T09:15:04;101168.03;;;4.39;100.00
36062;BME280;22123;52.412;20.970;2023-04-06T09:17:32;101149.19;;;4.53;100.00
36062;BME280;22123;52.412;20.970;2023-04-06T09:20:00;101160.84;;;4.64;100.00
36062;BME280;22123;52.412;20.970;2023-04-06T09:22:37;101140.91;;;4.45;100.00
36062;BME280;22123;52.412;20.970;2023-04-06T09:25:04;101137.25;;;4.35;100.00
36062;BME280;22123;52.412;20.970;2023-04-06T09:27:34;101160.59;;;4.31;100.00
36062;BME280;22123;52.412;20.970;2023-04-06T09:30:10;101123.97;;;3.98;100.00
36062;BME280;22123;52.412;20.970;2023-04-06T09:32:46;101141.34;;;4.28;100.00
36062;BME280;22123;52.412;20.970;2023-04-06T09:35:13;101136.47;;;4.33;100.00
36062;BME280;22123;52.412;20.970;2023-04-06T09:37:39;101108.81;;;4.23;100.00
36062;BME280;22123;52.412;20.970;2023-04-06T09:40:06;101150.03;;;4.30;100.00
36062;BME280;22123;52.412;20.970;2023-04-06T09:42:32;101096.78;;;4.06;100.00
36062;BME280;22123;52.412;20.970;2023-04-06T09:44:57;101104.13;;;4.02;100.00
36062;BME280;22123;52.412;20.970;2023-04-06T09:47:24;101093.47;;;4.02;100.00
36062;BME280;22123;52.412;20.970;2023-04-06T09:49:50;101129.97;;;4.37;100.00
36062;BME280;22123;52.412;20.970;2023-04-06T09:52:19;101126.38;;;4.49;100.00
36062;BME280;22123;52.412;20.970;2023-04-06T09:54:50;101111.22;;;4.50;100.00
36062;BME280;22123;52.412;20.970;2023-04-06T10:00:17;101100.31;;;4.53;100.00
36062;BME280;22123;52.412;20.970;2023-04-06T10:05:33;101111.22;;;4.50;100.00
36062;BME280;22123;52.412;20.970;2023-04-06T10:08:05;101110.75;;;4.45;100.00
36062;BME280;22123;52.412;20.970;2023-04-06T10:10:31;101028.47;;;4.05;100.00
36062;BME280;22123;52.412;20.970;2023-04-06T10:12:58;101064.50;;;4.33;100.00
36062;BME280;22123;52.412;20.970;2023-04-06T10:15:24;101067.69;;;4.38;100.00
36062;BME280;22123;52.412;20.970;2023-04-06T10:17:50;101084.66;;;4.37;100.00
36062;BME280;22123;52.412;20.970;2023-04-06T10:20:48;101092.50;;;4.27;100.00
36062;BME280;22123;52.412;20.970;2023-04-06T10:25:57;101077.56;;;3.89;100.00
36062;BME280;22123;52.412;20.970;2023-04-06T10:28:24;101079.47;;;3.63;100.00
36062;BME280;22123;52.412;20.970;2023-04-06T10:30:56;101099.75;;;3.53;100.00
36062;BME280;22123;52.412;20.970;2023-04-06T10:33:23;101049.50;;;3.11;100.00
36062;BME280;22123;52.412;20.970;2023-04-06T10:35:48;101053.22;;;3.08;100.00
36062;BME280;22123;52.412;20.970;2023-04-06T10:38:14;101058.53;;;3.08;100.00
36062;BME280;22123;52.412;20.970;2023-04-06T10:40:41;101095.34;;;3.27;100.00
36062;BME280;22123;52.412;20.970;2023-04-06T10:43:12;101066.84;;;3.17;100.00
36062;BME280;22123;52.412;20.970;2023-04-06T10:45:40;101055.75;;;3.23;100.00
36062;BME280;22123;52.412;20.970;2023-04-06T10:48:13;101058.50;;;3.21;100.00
36062;BME280;22123;52.412;20.970;2023-04-06T10:50:39;101051.44;;;3.09;100.00
36062;BME280;22123;52.412;20.970;2023-04-06T10:53:05;101072.13;;;3.29;100.00
36062;BME280;22123;52.412;20.970;2023-04-06T10:55:31;101069.78;;;3.38;100.00
36062;BME280;22123;52.412;20.970;2023-04-06T10:57:57;101041.25;;;3.27;100.00
36062;BME280;22123;52.412;20.970;2023-04-06T11:00:23;101055.47;;;3.39;100.00
36062;BME280;22123;52.412;20.970;2023-04-06T11:02:49;101053.13;;;3.47;100.00
36062;BME280;22123;52.412;20.970;2023-04-06T11:05:15;101060.28;;;3.46;100.00
36062;BME280;22123;52.412;20.970;2023-04-06T11:07:41;101053.00;;;3.48;100.00
36062;BME280;22123;52.412;20.970;2023-04-06T11:10:08;101026.66;;;3.33;100.00
36062;BME280;22123;52.412;20.970;2023-04-06T11:12:34;101039.22;;;3.43;100.00
36062;BME280;22123;52.412;20.970;2023-04-06T11:15:01;101068.22;;;3.59;100.00
36062;BME280;22123;52.412;20.970;2023-04-06T11:17:28;101041.53;;;3.48;100.00
36062;BME280;22123;52.412;20.970;2023-04-06T11:19:55;101040.03;;;3.44;100.00
36062;BME280;22123;52.412;20.970;2023-04-06T11:22:21;101073.31;;;3.62;100.00
36062;BME280;22123;52.412;20.970;2023-04-06T11:24:47;101025.19;;;3.28;100.00
36062;BME280;22123;52.412;20.970;2023-04-06T11:27:12;101058.34;;;3.48;100.00
36062;BME280;22123;52.412;20.970;2023-04-06T11:29:38;101023.63;;;3.26;100.00
36062;BME280;22123;52.412;20.970;2023-04-06T11:32:05;101034.31;;;3.37;100.00
36062;BME280;22123;52.412;20.970;2023-04-06T11:34:34;101050.06;;;3.40;100.00
36062;BME280;22123;52.412;20.970;2023-04-06T11:37:03;101045.72;;;3.39;100.00
36062;BME280;22123;52.412;20.970;2023-04-06T11:39:29;101035.41;;;3.35;100.00
36062;BME280;22123;52.412;20.970;2023-04-06T11:42:02;101040.81;;;3.33;100.00
36062;BME280;22123;52.412;20.970;2023-04-06T11:44:37;101048.63;;;3.47;100.00
36062;BME280;22123;52.412;20.970;2023-04-06T11:47:05;101045.38;;;3.44;100.00
36062;BME280;22123;52.412;20.970;2023-04-06T11:49:33;101038.78;;;3.37;100.00
36062;BME280;22123;52.412;20.970;2023-04-06T11:52:02;101024.22;;;3.29;100.00
36062;BME280;22123;52.412;20.970;2023-04-06T11:54:35;101046.66;;;3.38;100.00
36062;BME280;22123;52.412;20.970;2023-04-06T11:57:03;101037.31;;;3.33;100.00
36062;BME280;22123;52.412;20.970;2023-04-06T11:59:29;101013.16;;;3.23;100.00
36062;BME280;22123;52.412;20.970;2023-04-06T12:01:56;101005.47;;;3.31;100.00
36062;BME280;22123;52.412;20.970;2023-04-06T12:04:23;101006.38;;;3.43;100.00
36062;BME280;22123;52.412;20.970;2023-04-06T12:06:49;100999.41;;;3.42;100.00
36062;BME280;22123;52.412;20.970;2023-04-06T12:09:16;101009.13;;;3.54;100.00
36062;BME280;22123;52.412;20.970;2023-04-06T12:11:43;101005.16;;;3.60;100.00
36062;BME280;22123;52.412;20.970;2023-04-06T12:14:09;100973.22;;;3.60;100.00
36062;BME280;22123;52.412;20.970;2023-04-06T12:16:35;100962.78;;;3.57;100.00
36062;BME280;22123;52.412;20.970;2023-04-06T12:19:01;100986.56;;;3.71;100.00
36062;BME280;22123;52.412;20.970;2023-04-06T12:21:28;100959.78;;;3.61;100.00
36062;BME280;22123;52.412;20.970;2023-04-06T12:23:54;100950.84;;;3.62;100.00
36062;BME280;22123;52.412;20.970;2023-04-06T12:26:20;100997.66;;;3.89;100.00
36062;BME280;22123;52.412;20.970;2023-04-06T12:28:47;100967.19;;;3.69;100.00
36062;BME280;22123;52.412;20.970;2023-04-06T12:31:22;100961.97;;;3.68;100.00
36062;BME280;22123;52.412;20.970;2023-04-06T12:33:49;100963.31;;;3.73;100.00
36062;BME280;22123;52.412;20.970;2023-04-06T12:36:16;100970.34;;;3.74;100.00
36062;BME280;22123;52.412;20.970;2023-04-06T12:38:42;100887.25;;;3.22;100.00